sensor_id;sensor_type;location;lat;lon;timestamp;P1;durP1;ratioP1;P2;durP2;ratioP2
70406;SDS011;57821;52.202;0.154;2023-05-23T00:00:05;15.65;;;7.25;;
70406;SDS011;57821;52.202;0.154;2023-05-23T00:02:37;19.13;;;8.10;;
70406;SDS011;57821;52.202;0.154;2023-05-23T00:05:04;15.90;;;7.55;;
70406;SDS011;57821;52.202;0.154;2023-05-23T00:07:31;18.27;;;7.05;;
70406;SDS011;57821;52.202;0.154;2023-05-23T00:09:58;17.60;;;7.20;;
70406;SDS011;57821;52.202;0.154;2023-05-23T00:12:24;16.00;;;7.63;;
70406;SDS011;57821;52.202;0.154;2023-05-23T00:14:51;13.80;;;6.80;;
70406;SDS011;57821;52.202;0.154;2023-05-23T00:17:18;16.52;;;7.32;;
70406;SDS011;57821;52.202;0.154;2023-05-23T00:19:44;13.77;;;6.95;;
70406;SDS011;57821;52.202;0.154;2023-05-23T00:22:11;13.93;;;6.55;;
70406;SDS011;57821;52.202;0.154;2023-05-23T00:24:38;18.08;;;6.70;;
70406;SDS011;57821;52.202;0.154;2023-05-23T00:27:04;14.30;;;7.30;;
70406;SDS011;57821;52.202;0.154;2023-05-23T00:29:31;16.33;;;6.53;;
70406;SDS011;57821;52.202;0.154;2023-05-23T00:31:57;12.85;;;6.47;;
70406;SDS011;57821;52.202;0.154;2023-05-23T00:34:24;14.93;;;6.63;;
70406;SDS011;57821;52.202;0.154;2023-05-23T00:36:50;13.20;;;6.63;;
70406;SDS011;57821;52.202;0.154;2023-05-23T00:39:17;15.35;;;5.97;;
70406;SDS011;57821;52.202;0.154;2023-05-23T00:41:50;16.33;;;6.05;;
70406;SDS011;57821;52.202;0.154;2023-05-23T00:44:18;14.88;;;6.60;;
70406;SDS011;57821;52.202;0.154;2023-05-23T00:46:46;14.90;;;6.00;;
70406;SDS011;57821;52.202;0.154;2023-05-23T00:49:17;16.17;;;6.38;;
70406;SDS011;57821;52.202;0.154;2023-05-23T00:51:44;14.70;;;6.68;;
70406;SDS011;57821;52.202;0.154;2023-05-23T00:54:11;14.73;;;6.30;;
70406;SDS011;57821;52.202;0.154;2023-05-23T00:56:40;16.85;;;7.38;;
70406;SDS011;57821;52.202;0.154;2023-05-23T00:59:06;14.68;;;5.80;;
70406;SDS011;57821;52.202;0.154;2023-05-23T01:01:34;11.82;;;6.35;;
70406;SDS011;57821;52.202;0.154;2023-05-23T01:04:01;12.90;;;5.60;;
70406;SDS011;57821;52.202;0.154;2023-05-23T01:06:29;15.88;;;6.65;;
70406;SDS011;57821;52.202;0.154;2023-05-23T01:08:56;12.38;;;6.78;;
70406;SDS011;57821;52.202;0.154;2023-05-23T01:11:27;15.23;;;5.95;;
70406;SDS011;57821;52.202;0.154;2023-05-23T01:14:12;17.92;;;6.22;;
70406;SDS011;57821;52.202;0.154;2023-05-23T01:16:50;14.20;;;5.45;;
70406;SDS011;57821;52.202;0.154;2023-05-23T01:21:49;12.38;;;6.22;;
70406;SDS011;57821;52.202;0.154;2023-05-23T01:27:07;11.88;;;5.75;;
70406;SDS011;57821;52.202;0.154;2023-05-23T01:29:47;13.05;;;5.63;;
70406;SDS011;57821;52.202;0.154;2023-05-23T01:32:19;16.13;;;6.75;;
70406;SDS011;57821;52.202;0.154;2023-05-23T01:34:48;18.27;;;6.65;;
70406;SDS011;57821;52.202;0.154;2023-05-23T01:37:18;16.30;;;6.10;;
70406;SDS011;57821;52.202;0.154;2023-05-23T01:39:45;16.02;;;5.95;;
70406;SDS011;57821;52.202;0.154;2023-05-23T01:42:13;13.20;;;5.65;;
70406;SDS011;57821;52.202;0.154;2023-05-23T01:44:40;21.15;;;5.78;;
70406;SDS011;57821;52.202;0.154;2023-05-23T01:47:08;13.32;;;5.38;;
70406;SDS011;57821;52.202;0.154;2023-05-23T01:49:36;16.73;;;7.10;;
70406;SDS011;57821;52.202;0.154;2023-05-23T01:52:03;12.25;;;5.72;;
70406;SDS011;57821;52.202;0.154;2023-05-23T01:54:31;13.13;;;5.57;;
70406;SDS011;57821;52.202;0.154;2023-05-23T01:56:58;12.77;;;5.70;;
70406;SDS011;57821;52.202;0.154;2023-05-23T01:59:26;17.63;;;6.15;;
70406;SDS011;57821;52.202;0.154;2023-05-23T02:01:55;14.85;;;5.22;;
70406;SDS011;57821;52.202;0.154;2023-05-23T02:04:21;17.33;;;6.63;;
70406;SDS011;57821;52.202;0.154;2023-05-23T02:06:48;16.83;;;6.40;;
70406;SDS011;57821;52.202;0.154;2023-05-23T02:09:15;17.17;;;5.95;;
70406;SDS011;57821;52.202;0.154;2023-05-23T02:11:43;18.52;;;6.40;;
70406;SDS011;57821;52.202;0.154;2023-05-23T02:14:10;13.75;;;6.28;;
70406;SDS011;57821;52.202;0.154;2023-05-23T02:16:36;15.05;;;6.45;;
70406;SDS011;57821;52.202;0.154;2023-05-23T02:19:03;13.95;;;5.53;;
70406;SDS011;57821;52.202;0.154;2023-05-23T02:21:29;15.35;;;6.53;;
70406;SDS011;57821;52.202;0.154;2023-05-23T02:23:58;16.95;;;6.95;;
70406;SDS011;57821;52.202;0.154;2023-05-23T02:26:25;13.23;;;5.97;;
70406;SDS011;57821;52.202;0.154;2023-05-23T02:28:51;16.50;;;6.80;;
70406;SDS011;57821;52.202;0.154;2023-05-23T02:31:18;12.27;;;5.50;;
70406;SDS011;57821;52.202;0.154;2023-05-23T02:33:45;14.85;;;6.55;;
70406;SDS011;57821;52.202;0.154;2023-05-23T02:36:11;12.55;;;6.00;;
70406;SDS011;57821;52.202;0.154;2023-05-23T02:38:38;11.48;;;5.75;;
70406;SDS011;57821;52.202;0.154;2023-05-23T02:41:04;13.65;;;6.30;;
70406;SDS011;57821;52.202;0.154;2023-05-23T02:43:31;20.60;;;6.22;;
70406;SDS011;57821;52.202;0.154;2023-05-23T02:45:58;14.18;;;6.90;;
70406;SDS011;57821;52.202;0.154;2023-05-23T02:48:25;12.77;;;5.90;;
70406;SDS011;57821;52.202;0.154;2023-05-23T02:50:52;14.07;;;5.32;;
70406;SDS011;57821;52.202;0.154;2023-05-23T02:53:18;12.32;;;6.05;;
70406;SDS011;57821;52.202;0.154;2023-05-23T02:55:45;11.82;;;5.78;;
70406;SDS011;57821;52.202;0.154;2023-05-23T02:58:11;16.40;;;6.20;;
70406;SDS011;57821;52.202;0.154;2023-05-23T03:00:38;12.52;;;5.78;;
70406;SDS011;57821;52.202;0.154;2023-05-23T03:03:05;16.90;;;5.93;;
70406;SDS011;57821;52.202;0.154;2023-05-23T03:05:32;12.60;;;5.75;;
70406;SDS011;57821;52.202;0.154;2023-05-23T03:07:58;15.73;;;5.43;;
70406;SDS011;57821;52.202;0.154;2023-05-23T03:10:25;12.02;;;5.43;;
70406;SDS011;57821;52.202;0.154;2023-05-23T03:12:52;16.23;;;6.03;;
70406;SDS011;57821;52.202;0.154;2023-05-23T03:15:18;12.88;;;5.80;;
70406;SDS011;57821;52.202;0.154;2023-05-23T03:17:45;18.02;;;5.55;;
70406;SDS011;57821;52.202;0.154;2023-05-23T03:20:14;13.45;;;4.80;;
70406;SDS011;57821;52.202;0.154;2023-05-23T03:22:40;14.20;;;5.15;;
70406;SDS011;57821;52.202;0.154;2023-05-23T03:25:07;11.38;;;5.57;;
70406;SDS011;57821;52.202;0.154;2023-05-23T03:27:34;17.10;;;5.50;;
70406;SDS011;57821;52.202;0.154;2023-05-23T03:30:01;14.32;;;4.75;;
70406;SDS011;57821;52.202;0.154;2023-05-23T03:32:29;12.40;;;5.15;;
70406;SDS011;57821;52.202;0.154;2023-05-23T03:34:55;10.80;;;4.45;;
70406;SDS011;57821;52.202;0.154;2023-05-23T03:37:22;10.02;;;4.45;;
70406;SDS011;57821;52.202;0.154;2023-05-23T03:39:49;12.35;;;4.57;;
70406;SDS011;57821;52.202;0.154;2023-05-23T03:42:16;14.80;;;4.65;;
70406;SDS011;57821;52.202;0.154;2023-05-23T03:44:44;14.32;;;4.38;;
70406;SDS011;57821;52.202;0.154;2023-05-23T03:47:10;16.85;;;4.65;;
70406;SDS011;57821;52.202;0.154;2023-05-23T03:49:39;13.52;;;4.53;;
70406;SDS011;57821;52.202;0.154;2023-05-23T03:52:06;12.25;;;4.50;;
70406;SDS011;57821;52.202;0.154;2023-05-23T03:54:33;11.57;;;4.43;;
70406;SDS011;57821;52.202;0.154;2023-05-23T03:57:00;16.13;;;4.72;;
70406;SDS011;57821;52.202;0.154;2023-05-23T03:59:26;14.65;;;4.93;;
70406;SDS011;57821;52.202;0.154;2023-05-23T04:01:53;12.20;;;3.90;;
70406;SDS011;57821;52.202;0.154;2023-05-23T04:04:20;12.48;;;4.05;;
70406;SDS011;57821;52.202;0.154;2023-05-23T04:06:48;15.27;;;4.50;;
70406;SDS011;57821;52.202;0.154;2023-05-23T04:09:14;11.95;;;4.55;;
70406;SDS011;57821;52.202;0.154;2023-05-23T04:11:44;13.88;;;4.45;;
70406;SDS011;57821;52.202;0.154;2023-05-23T04:14:10;8.98;;;4.30;;
70406;SDS011;57821;52.202;0.154;2023-05-23T04:16:37;18.30;;;4.80;;
70406;SDS011;57821;52.202;0.154;2023-05-23T04:19:04;14.80;;;3.97;;
70406;SDS011;57821;52.202;0.154;2023-05-23T04:21:31;14.00;;;4.07;;
70406;SDS011;57821;52.202;0.154;2023-05-23T04:24:09;14.13;;;3.83;;
70406;SDS011;57821;52.202;0.154;2023-05-23T04:26:36;14.23;;;4.50;;
70406;SDS011;57821;52.202;0.154;2023-05-23T04:29:03;13.32;;;4.40;;
70406;SDS011;57821;52.202;0.154;2023-05-23T04:31:31;16.52;;;3.92;;
70406;SDS011;57821;52.202;0.154;2023-05-23T04:33:57;15.27;;;4.40;;
70406;SDS011;57821;52.202;0.154;2023-05-23T04:36:24;12.68;;;4.35;;
70406;SDS011;57821;52.202;0.154;2023-05-23T04:38:53;15.77;;;4.38;;
70406;SDS011;57821;52.202;0.154;2023-05-23T04:41:19;12.75;;;4.32;;
70406;SDS011;57821;52.202;0.154;2023-05-23T04:44:03;12.35;;;3.67;;
70406;SDS011;57821;52.202;0.154;2023-05-23T04:46:34;16.00;;;4.80;;
70406;SDS011;57821;52.202;0.154;2023-05-23T04:49:15;12.90;;;4.67;;
70406;SDS011;57821;52.202;0.154;2023-05-23T04:51:42;11.93;;;3.70;;
70406;SDS011;57821;52.202;0.154;2023-05-23T04:54:19;15.57;;;4.18;;
70406;SDS011;57821;52.202;0.154;2023-05-23T04:56:46;14.32;;;4.18;;
70406;SDS011;57821;52.202;0.154;2023-05-23T04:59:15;14.40;;;4.03;;
70406;SDS011;57821;52.202;0.154;2023-05-23T05:01:41;18.88;;;4.07;;
70406;SDS011;57821;52.202;0.154;2023-05-23T05:04:08;14.63;;;4.10;;
70406;SDS011;57821;52.202;0.154;2023-05-23T05:06:35;16.23;;;5.57;;
70406;SDS011;57821;52.202;0.154;2023-05-23T05:09:01;13.32;;;4.03;;
70406;SDS011;57821;52.202;0.154;2023-05-23T05:11:28;15.82;;;4.65;;
70406;SDS011;57821;52.202;0.154;2023-05-23T05:13:55;12.88;;;3.88;;
70406;SDS011;57821;52.202;0.154;2023-05-23T05:16:22;17.55;;;3.88;;
70406;SDS011;57821;52.202;0.154;2023-05-23T05:18:49;12.55;;;3.78;;
70406;SDS011;57821;52.202;0.154;2023-05-23T05:21:17;11.10;;;3.83;;
70406;SDS011;57821;52.202;0.154;2023-05-23T05:23:44;15.77;;;3.90;;
70406;SDS011;57821;52.202;0.154;2023-05-23T05:26:13;16.52;;;3.70;;
70406;SDS011;57821;52.202;0.154;2023-05-23T05:28:40;10.85;;;4.20;;
70406;SDS011;57821;52.202;0.154;2023-05-23T05:31:06;14.30;;;4.65;;
70406;SDS011;57821;52.202;0.154;2023-05-23T05:33:34;15.35;;;3.88;;
70406;SDS011;57821;52.202;0.154;2023-05-23T05:36:06;16.45;;;4.13;;
70406;SDS011;57821;52.202;0.154;2023-05-23T05:38:33;11.32;;;4.07;;
70406;SDS011;57821;52.202;0.154;2023-05-23T05:40:59;15.07;;;3.97;;
70406;SDS011;57821;52.202;0.154;2023-05-23T05:43:32;23.08;;;4.38;;
70406;SDS011;57821;52.202;0.154;2023-05-23T05:45:59;13.32;;;4.88;;
70406;SDS011;57821;52.202;0.154;2023-05-23T05:48:25;11.90;;;3.85;;
70406;SDS011;57821;52.202;0.154;2023-05-23T05:50:54;11.00;;;3.55;;
70406;SDS011;57821;52.202;0.154;2023-05-23T05:53:21;18.27;;;4.90;;
70406;SDS011;57821;52.202;0.154;2023-05-23T05:55:47;23.63;;;6.88;;
70406;SDS011;57821;52.202;0.154;2023-05-23T05:58:14;18.73;;;3.88;;
70406;SDS011;57821;52.202;0.154;2023-05-23T06:01:01;15.10;;;4.53;;
70406;SDS011;57821;52.202;0.154;2023-05-23T06:03:27;13.38;;;3.75;;
70406;SDS011;57821;52.202;0.154;2023-05-23T06:05:54;14.70;;;3.42;;
70406;SDS011;57821;52.202;0.154;2023-05-23T06:08:21;18.80;;;5.28;;
70406;SDS011;57821;52.202;0.154;2023-05-23T06:10:48;16.05;;;3.70;;
70406;SDS011;57821;52.202;0.154;2023-05-23T06:13:15;14.90;;;3.85;;
70406;SDS011;57821;52.202;0.154;2023-05-23T06:15:46;17.13;;;4.43;;
70406;SDS011;57821;52.202;0.154;2023-05-23T06:18:12;12.85;;;4.50;;
70406;SDS011;57821;52.202;0.154;2023-05-23T06:20:39;14.00;;;3.40;;
70406;SDS011;57821;52.202;0.154;2023-05-23T06:23:11;14.88;;;4.50;;
70406;SDS011;57821;52.202;0.154;2023-05-23T06:25:38;16.45;;;4.10;;
70406;SDS011;57821;52.202;0.154;2023-05-23T06:28:05;16.73;;;3.88;;
70406;SDS011;57821;52.202;0.154;2023-05-23T06:30:32;13.23;;;3.65;;
70406;SDS011;57821;52.202;0.154;2023-05-23T06:32:59;12.18;;;3.95;;
70406;SDS011;57821;52.202;0.154;2023-05-23T06:35:25;16.45;;;4.75;;
70406;SDS011;57821;52.202;0.154;2023-05-23T06:37:52;10.85;;;3.50;;
70406;SDS011;57821;52.202;0.154;2023-05-23T06:40:18;18.58;;;3.78;;
70406;SDS011;57821;52.202;0.154;2023-05-23T06:42:45;20.25;;;4.43;;
70406;SDS011;57821;52.202;0.154;2023-05-23T06:45:23;16.55;;;3.13;;
70406;SDS011;57821;52.202;0.154;2023-05-23T06:47:50;18.25;;;4.35;;
70406;SDS011;57821;52.202;0.154;2023-05-23T06:50:18;16.95;;;3.03;;
70406;SDS011;57821;52.202;0.154;2023-05-23T06:52:45;19.08;;;3.38;;
70406;SDS011;57821;52.202;0.154;2023-05-23T06:55:12;13.60;;;3.47;;
70406;SDS011;57821;52.202;0.154;2023-05-23T06:57:39;17.30;;;3.38;;
70406;SDS011;57821;52.202;0.154;2023-05-23T07:00:06;19.23;;;3.70;;
70406;SDS011;57821;52.202;0.154;2023-05-23T07:02:39;12.95;;;3.35;;
70406;SDS011;57821;52.202;0.154;2023-05-23T07:05:06;14.65;;;3.03;;
70406;SDS011;57821;52.202;0.154;2023-05-23T07:07:44;20.40;;;4.45;;
70406;SDS011;57821;52.202;0.154;2023-05-23T07:10:11;14.88;;;3.40;;
70406;SDS011;57821;52.202;0.154;2023-05-23T07:12:39;22.80;;;4.28;;
70406;SDS011;57821;52.202;0.154;2023-05-23T07:15:05;16.15;;;3.95;;
70406;SDS011;57821;52.202;0.154;2023-05-23T07:17:38;14.07;;;2.78;;
70406;SDS011;57821;52.202;0.154;2023-05-23T07:20:05;22.40;;;3.78;;
70406;SDS011;57821;52.202;0.154;2023-05-23T07:22:35;15.48;;;3.63;;
70406;SDS011;57821;52.202;0.154;2023-05-23T07:25:02;17.20;;;3.45;;
70406;SDS011;57821;52.202;0.154;2023-05-23T07:27:31;16.30;;;3.17;;
70406;SDS011;57821;52.202;0.154;2023-05-23T07:29:58;14.68;;;3.70;;
70406;SDS011;57821;52.202;0.154;2023-05-23T07:32:25;15.00;;;2.75;;
70406;SDS011;57821;52.202;0.154;2023-05-23T07:34:52;15.40;;;2.50;;
70406;SDS011;57821;52.202;0.154;2023-05-23T07:37:19;22.15;;;3.40;;
70406;SDS011;57821;52.202;0.154;2023-05-23T07:39:46;11.45;;;2.92;;
70406;SDS011;57821;52.202;0.154;2023-05-23T07:42:12;18.85;;;3.55;;
70406;SDS011;57821;52.202;0.154;2023-05-23T07:44:40;18.48;;;4.38;;
70406;SDS011;57821;52.202;0.154;2023-05-23T07:47:07;18.23;;;3.53;;
70406;SDS011;57821;52.202;0.154;2023-05-23T07:49:34;14.85;;;2.78;;
70406;SDS011;57821;52.202;0.154;2023-05-23T07:52:03;13.63;;;3.45;;
70406;SDS011;57821;52.202;0.154;2023-05-23T07:54:31;11.90;;;2.55;;
70406;SDS011;57821;52.202;0.154;2023-05-23T07:57:00;15.30;;;3.28;;
70406;SDS011;57821;52.202;0.154;2023-05-23T07:59:27;13.93;;;3.58;;
70406;SDS011;57821;52.202;0.154;2023-05-23T08:01:54;14.63;;;3.97;;
70406;SDS011;57821;52.202;0.154;2023-05-23T08:04:23;13.70;;;2.50;;
70406;SDS011;57821;52.202;0.154;2023-05-23T08:06:51;12.48;;;2.50;;
70406;SDS011;57821;52.202;0.154;2023-05-23T08:09:52;14.65;;;2.38;;
70406;SDS011;57821;52.202;0.154;2023-05-23T08:12:19;14.70;;;2.60;;
70406;SDS011;57821;52.202;0.154;2023-05-23T08:14:50;13.32;;;2.78;;
70406;SDS011;57821;52.202;0.154;2023-05-23T08:17:22;18.42;;;2.83;;
70406;SDS011;57821;52.202;0.154;2023-05-23T08:19:51;17.20;;;2.90;;
70406;SDS011;57821;52.202;0.154;2023-05-23T08:22:17;13.30;;;3.08;;
70406;SDS011;57821;52.202;0.154;2023-05-23T08:24:44;14.38;;;2.20;;
70406;SDS011;57821;52.202;0.154;2023-05-23T08:27:10;14.60;;;2.50;;
70406;SDS011;57821;52.202;0.154;2023-05-23T08:29:37;14.10;;;2.47;;
70406;SDS011;57821;52.202;0.154;2023-05-23T08:32:04;11.43;;;2.50;;
70406;SDS011;57821;52.202;0.154;2023-05-23T08:34:32;13.63;;;2.80;;
70406;SDS011;57821;52.202;0.154;2023-05-23T08:36:59;10.02;;;2.47;;
70406;SDS011;57821;52.202;0.154;2023-05-23T08:39:25;9.30;;;2.55;;
70406;SDS011;57821;52.202;0.154;2023-05-23T08:42:14;15.68;;;3.20;;
70406;SDS011;57821;52.202;0.154;2023-05-23T08:44:41;12.60;;;2.35;;
70406;SDS011;57821;52.202;0.154;2023-05-23T08:47:08;13.88;;;2.22;;
70406;SDS011;57821;52.202;0.154;2023-05-23T08:49:43;13.05;;;2.42;;
70406;SDS011;57821;52.202;0.154;2023-05-23T08:52:11;10.70;;;2.13;;
70406;SDS011;57821;52.202;0.154;2023-05-23T08:54:45;12.95;;;2.65;;
70406;SDS011;57821;52.202;0.154;2023-05-23T08:57:13;14.70;;;3.30;;
70406;SDS011;57821;52.202;0.154;2023-05-23T08:59:44;15.70;;;2.30;;
70406;SDS011;57821;52.202;0.154;2023-05-23T09:02:13;14.20;;;2.63;;
70406;SDS011;57821;52.202;0.154;2023-05-23T09:04:41;12.18;;;2.53;;
70406;SDS011;57821;52.202;0.154;2023-05-23T09:07:12;11.32;;;2.33;;
70406;SDS011;57821;52.202;0.154;2023-05-23T09:09:42;16.15;;;2.80;;
70406;SDS011;57821;52.202;0.154;2023-05-23T09:12:11;13.68;;;2.05;;
70406;SDS011;57821;52.202;0.154;2023-05-23T09:14:38;14.82;;;2.30;;
70406;SDS011;57821;52.202;0.154;2023-05-23T09:17:07;11.90;;;2.25;;
70406;SDS011;57821;52.202;0.154;2023-05-23T09:19:33;11.27;;;2.35;;
70406;SDS011;57821;52.202;0.154;2023-05-23T09:22:26;11.63;;;2.60;;
70406;SDS011;57821;52.202;0.154;2023-05-23T09:25:05;11.00;;;2.40;;
70406;SDS011;57821;52.202;0.154;2023-05-23T09:27:33;14.88;;;2.85;;
70406;SDS011;57821;52.202;0.154;2023-05-23T09:30:07;17.63;;;3.85;;
70406;SDS011;57821;52.202;0.154;2023-05-23T09:32:35;17.17;;;2.58;;
70406;SDS011;57821;52.202;0.154;2023-05-23T09:35:04;12.48;;;2.60;;
70406;SDS011;57821;52.202;0.154;2023-05-23T09:40:07;13.60;;;2.70;;
70406;SDS011;57821;52.202;0.154;2023-05-23T09:42:44;12.48;;;2.45;;
70406;SDS011;57821;52.202;0.154;2023-05-23T09:45:12;15.23;;;2.72;;
70406;SDS011;57821;52.202;0.154;2023-05-23T09:47:50;10.55;;;2.20;;
70406;SDS011;57821;52.202;0.154;2023-05-23T09:50:17;11.40;;;2.38;;
70406;SDS011;57821;52.202;0.154;2023-05-23T09:52:45;11.50;;;2.60;;
70406;SDS011;57821;52.202;0.154;2023-05-23T09:55:11;10.98;;;2.17;;
70406;SDS011;57821;52.202;0.154;2023-05-23T09:57:39;13.10;;;3.10;;
70406;SDS011;57821;52.202;0.154;2023-05-23T10:00:07;10.23;;;2.10;;
70406;SDS011;57821;52.202;0.154;2023-05-23T10:05:34;14.60;;;2.80;;
70406;SDS011;57821;52.202;0.154;2023-05-23T10:08:10;8.57;;;2.00;;
70406;SDS011;57821;52.202;0.154;2023-05-23T10:13:27;12.35;;;2.20;;
70406;SDS011;57821;52.202;0.154;2023-05-23T10:16:39;11.93;;;2.03;;
70406;SDS011;57821;52.202;0.154;2023-05-23T10:18:55;9.13;;;2.33;;
70406;SDS011;57821;52.202;0.154;2023-05-23T10:21:28;7.60;;;2.07;;
70406;SDS011;57821;52.202;0.154;2023-05-23T10:23:58;12.02;;;2.08;;
70406;SDS011;57821;52.202;0.154;2023-05-23T10:26:26;11.27;;;2.20;;
70406;SDS011;57821;52.202;0.154;2023-05-23T10:28:53;8.65;;;2.22;;
70406;SDS011;57821;52.202;0.154;2023-05-23T10:31:20;11.45;;;2.42;;
70406;SDS011;57821;52.202;0.154;2023-05-23T10:33:53;6.82;;;2.13;;
70406;SDS011;57821;52.202;0.154;2023-05-23T10:36:32;9.27;;;2.20;;
70406;SDS011;57821;52.202;0.154;2023-05-23T10:39:11;10.32;;;2.05;;
70406;SDS011;57821;52.202;0.154;2023-05-23T10:41:47;11.02;;;2.67;;
70406;SDS011;57821;52.202;0.154;2023-05-23T10:44:30;13.00;;;2.65;;
70406;SDS011;57821;52.202;0.154;2023-05-23T10:46:58;9.20;;;2.28;;
70406;SDS011;57821;52.202;0.154;2023-05-23T10:52:06;11.30;;;2.03;;
70406;SDS011;57821;52.202;0.154;2023-05-23T10:54:34;10.63;;;2.30;;
70406;SDS011;57821;52.202;0.154;2023-05-23T10:57:02;8.00;;;1.92;;
70406;SDS011;57821;52.202;0.154;2023-05-23T10:59:29;10.98;;;2.45;;
70406;SDS011;57821;52.202;0.154;2023-05-23T11:01:56;8.00;;;1.90;;
70406;SDS011;57821;52.202;0.154;2023-05-23T11:04:25;12.55;;;2.20;;
70406;SDS011;57821;52.202;0.154;2023-05-23T11:06:53;8.70;;;2.55;;
70406;SDS011;57821;52.202;0.154;2023-05-23T11:09:21;14.57;;;2.85;;
70406;SDS011;57821;52.202;0.154;2023-05-23T11:14:31;6.43;;;1.70;;
70406;SDS011;57821;52.202;0.154;2023-05-23T11:16:58;13.35;;;2.88;;
70406;SDS011;57821;52.202;0.154;2023-05-23T11:19:37;10.20;;;2.20;;
70406;SDS011;57821;52.202;0.154;2023-05-23T11:22:08;8.02;;;2.00;;
70406;SDS011;57821;52.202;0.154;2023-05-23T11:24:47;7.63;;;2.17;;
70406;SDS011;57821;52.202;0.154;2023-05-23T11:27:25;10.55;;;2.00;;
70406;SDS011;57821;52.202;0.154;2023-05-23T11:32:39;10.70;;;2.28;;
70406;SDS011;57821;52.202;0.154;2023-05-23T11:35:07;12.25;;;2.30;;
70406;SDS011;57821;52.202;0.154;2023-05-23T11:37:38;13.20;;;2.67;;
70406;SDS011;57821;52.202;0.154;2023-05-23T11:40:27;12.50;;;2.60;;
70406;SDS011;57821;52.202;0.154;2023-05-23T11:42:57;11.90;;;2.15;;
70406;SDS011;57821;52.202;0.154;2023-05-23T11:45:24;9.13;;;1.95;;
70406;SDS011;57821;52.202;0.154;2023-05-23T11:47:52;9.88;;;2.28;;
70406;SDS011;57821;52.202;0.154;2023-05-23T11:50:18;11.65;;;1.90;;
70406;SDS011;57821;52.202;0.154;2023-05-23T11:52:45;12.60;;;2.45;;
70406;SDS011;57821;52.202;0.154;2023-05-23T11:55:12;6.60;;;1.92;;
70406;SDS011;57821;52.202;0.154;2023-05-23T11:57:39;11.27;;;2.65;;
70406;SDS011;57821;52.202;0.154;2023-05-23T12:00:06;8.23;;;2.13;;
70406;SDS011;57821;52.202;0.154;2023-05-23T12:02:37;13.45;;;2.30;;
70406;SDS011;57821;52.202;0.154;2023-05-23T12:05:08;7.95;;;1.90;;
70406;SDS011;57821;52.202;0.154;2023-05-23T12:07:39;15.75;;;2.20;;
70406;SDS011;57821;52.202;0.154;2023-05-23T12:10:10;11.25;;;2.15;;
70406;SDS011;57821;52.202;0.154;2023-05-23T12:12:37;10.13;;;2.28;;
70406;SDS011;57821;52.202;0.154;2023-05-23T12:15:03;7.90;;;2.15;;
70406;SDS011;57821;52.202;0.154;2023-05-23T12:17:30;10.57;;;2.42;;
70406;SDS011;57821;52.202;0.154;2023-05-23T12:19:57;13.50;;;2.40;;
70406;SDS011;57821;52.202;0.154;2023-05-23T12:22:25;7.72;;;2.05;;
70406;SDS011;57821;52.202;0.154;2023-05-23T12:24:53;12.68;;;2.40;;
70406;SDS011;57821;52.202;0.154;2023-05-23T12:27:28;12.07;;;2.53;;
70406;SDS011;57821;52.202;0.154;2023-05-23T12:30:13;14.32;;;2.40;;
70406;SDS011;57821;52.202;0.154;2023-05-23T12:32:41;10.43;;;2.60;;
70406;SDS011;57821;52.202;0.154;2023-05-23T12:35:10;12.57;;;2.38;;
70406;SDS011;57821;52.202;0.154;2023-05-23T12:37:39;8.35;;;2.15;;
70406;SDS011;57821;52.202;0.154;2023-05-23T12:40:12;7.50;;;1.95;;
70406;SDS011;57821;52.202;0.154;2023-05-23T12:42:48;8.02;;;1.92;;
70406;SDS011;57821;52.202;0.154;2023-05-23T12:45:16;13.18;;;2.35;;
70406;SDS011;57821;52.202;0.154;2023-05-23T12:47:42;14.68;;;2.30;;
70406;SDS011;57821;52.202;0.154;2023-05-23T12:50:09;11.98;;;2.97;;
70406;SDS011;57821;52.202;0.154;2023-05-23T12:52:36;8.88;;;2.20;;
70406;SDS011;57821;52.202;0.154;2023-05-23T12:55:03;11.70;;;2.42;;
70406;SDS011;57821;52.202;0.154;2023-05-23T12:57:30;10.15;;;2.35;;
70406;SDS011;57821;52.202;0.154;2023-05-23T12:59:57;10.80;;;1.90;;
70406;SDS011;57821;52.202;0.154;2023-05-23T13:02:23;8.73;;;2.75;;
70406;SDS011;57821;52.202;0.154;2023-05-23T13:04:51;8.85;;;1.88;;
70406;SDS011;57821;52.202;0.154;2023-05-23T13:07:18;8.77;;;2.38;;
70406;SDS011;57821;52.202;0.154;2023-05-23T13:09:44;11.18;;;2.20;;
70406;SDS011;57821;52.202;0.154;2023-05-23T13:12:11;11.27;;;2.35;;
70406;SDS011;57821;52.202;0.154;2023-05-23T13:14:37;6.93;;;1.70;;
70406;SDS011;57821;52.202;0.154;2023-05-23T13:17:04;10.20;;;2.08;;
70406;SDS011;57821;52.202;0.154;2023-05-23T13:19:31;8.90;;;2.28;;
70406;SDS011;57821;52.202;0.154;2023-05-23T13:21:57;11.82;;;2.00;;
70406;SDS011;57821;52.202;0.154;2023-05-23T13:24:24;9.10;;;2.30;;
70406;SDS011;57821;52.202;0.154;2023-05-23T13:26:51;8.43;;;1.55;;
70406;SDS011;57821;52.202;0.154;2023-05-23T13:29:18;10.02;;;2.08;;
70406;SDS011;57821;52.202;0.154;2023-05-23T13:31:44;10.80;;;2.22;;
70406;SDS011;57821;52.202;0.154;2023-05-23T13:34:12;7.53;;;1.73;;
70406;SDS011;57821;52.202;0.154;2023-05-23T13:36:38;10.73;;;2.30;;
70406;SDS011;57821;52.202;0.154;2023-05-23T13:39:05;7.95;;;1.80;;
70406;SDS011;57821;52.202;0.154;2023-05-23T13:41:32;11.32;;;2.20;;
70406;SDS011;57821;52.202;0.154;2023-05-23T13:43:58;9.40;;;1.95;;
70406;SDS011;57821;52.202;0.154;2023-05-23T13:46:25;14.02;;;2.03;;
70406;SDS011;57821;52.202;0.154;2023-05-23T13:48:52;9.00;;;1.70;;
70406;SDS011;57821;52.202;0.154;2023-05-23T13:51:18;10.35;;;2.05;;
70406;SDS011;57821;52.202;0.154;2023-05-23T13:53:45;9.57;;;2.55;;
70406;SDS011;57821;52.202;0.154;2023-05-23T13:56:11;8.15;;;1.45;;
70406;SDS011;57821;52.202;0.154;2023-05-23T13:58:38;6.78;;;1.85;;
70406;SDS011;57821;52.202;0.154;2023-05-23T14:01:04;8.55;;;2.15;;
70406;SDS011;57821;52.202;0.154;2023-05-23T14:03:31;8.65;;;2.10;;
70406;SDS011;57821;52.202;0.154;2023-05-23T14:05:57;8.00;;;2.10;;
70406;SDS011;57821;52.202;0.154;2023-05-23T14:08:24;9.23;;;1.92;;
70406;SDS011;57821;52.202;0.154;2023-05-23T14:10:50;10.52;;;1.98;;
70406;SDS011;57821;52.202;0.154;2023-05-23T14:13:17;9.70;;;2.15;;
70406;SDS011;57821;52.202;0.154;2023-05-23T14:15:43;8.07;;;1.85;;
70406;SDS011;57821;52.202;0.154;2023-05-23T14:18:10;6.90;;;1.70;;
70406;SDS011;57821;52.202;0.154;2023-05-23T14:20:36;7.15;;;1.80;;
70406;SDS011;57821;52.202;0.154;2023-05-23T14:23:03;6.32;;;1.50;;
70406;SDS011;57821;52.202;0.154;2023-05-23T14:25:29;6.47;;;1.63;;
70406;SDS011;57821;52.202;0.154;2023-05-23T14:27:56;12.30;;;2.10;;
70406;SDS011;57821;52.202;0.154;2023-05-23T14:30:23;9.82;;;1.90;;
70406;SDS011;57821;52.202;0.154;2023-05-23T14:32:49;7.53;;;1.80;;
70406;SDS011;57821;52.202;0.154;2023-05-23T14:35:16;10.05;;;1.90;;
70406;SDS011;57821;52.202;0.154;2023-05-23T14:37:43;6.90;;;1.90;;
70406;SDS011;57821;52.202;0.154;2023-05-23T14:40:10;8.50;;;2.10;;
70406;SDS011;57821;52.202;0.154;2023-05-23T14:42:37;6.22;;;2.00;;
70406;SDS011;57821;52.202;0.154;2023-05-23T14:45:04;11.55;;;2.00;;
70406;SDS011;57821;52.202;0.154;2023-05-23T14:47:31;10.15;;;1.80;;
70406;SDS011;57821;52.202;0.154;2023-05-23T14:49:57;8.32;;;2.00;;
70406;SDS011;57821;52.202;0.154;2023-05-23T14:52:24;6.38;;;1.67;;
70406;SDS011;57821;52.202;0.154;2023-05-23T14:54:50;6.53;;;1.80;;
70406;SDS011;57821;52.202;0.154;2023-05-23T14:57:17;6.70;;;1.90;;
70406;SDS011;57821;52.202;0.154;2023-05-23T14:59:44;9.30;;;1.70;;
70406;SDS011;57821;52.202;0.154;2023-05-23T15:02:10;7.85;;;1.60;;
70406;SDS011;57821;52.202;0.154;2023-05-23T15:04:37;10.85;;;4.30;;